sensor_id;sensor_type;location;lat;lon;timestamp;pressure;altitude;pressure_sealevel;temperature;humidity
22743;BME280;11538;48.884;8.696;2023-03-26T00:01:35;98264.03;;;8.73;100.00
22743;BME280;11538;48.884;8.696;2023-03-26T00:04:05;98253.31;;;8.68;100.00
22743;BME280;11538;48.884;8.696;2023-03-26T00:06:36;98261.41;;;8.68;100.00
22743;BME280;11538;48.884;8.696;2023-03-26T00:09:09;98260.31;;;8.69;100.00
22743;BME280;11538;48.884;8.696;2023-03-26T00:11:36;98255.72;;;8.69;100.00
22743;BME280;11538;48.884;8.696;2023-03-26T00:14:03;98259.13;;;8.75;100.00
22743;BME280;11538;48.884;8.696;2023-03-26T00:16:31;98256.00;;;8.68;100.00
22743;BME280;11538;48.884;8.696;2023-03-26T00:18:59;98264.59;;;8.56;100.00
22743;BME280;11538;48.884;8.696;2023-03-26T00:21:29;98262.13;;;8.59;100.00
22743;BME280;11538;48.884;8.696;2023-03-26T00:24:07;98263.44;;;8.62;100.00
22743;BME280;11538;48.884;8.696;2023-03-26T00:26:36;98264.44;;;8.66;100.00
22743;BME280;11538;48.884;8.696;2023-03-26T00:29:04;98255.00;;;8.63;100.00
22743;BME280;11538;48.884;8.696;2023-03-26T00:31:33;98261.72;;;8.66;100.00
22743;BME280;11538;48.884;8.696;2023-03-26T00:34:00;98250.69;;;8.62;100.00
22743;BME280;11538;48.884;8.696;2023-03-26T00:36:30;98249.38;;;8.60;100.00
22743;BME280;11538;48.884;8.696;2023-03-26T00:38:57;98256.66;;;8.45;100.00
22743;BME280;11538;48.884;8.696;2023-03-26T00:41:25;98249.53;;;8.36;100.00
22743;BME280;11538;48.884;8.696;2023-03-26T00:43:56;98246.22;;;8.25;100.00
22743;BME280;11538;48.884;8.696;2023-03-26T00:46:29;98244.00;;;8.27;100.00
22743;BME280;11538;48.884;8.696;2023-03-26T00:48:58;98241.03;;;8.28;100.00
22743;BME280;11538;48.884;8.696;2023-03-26T00:51:27;98238.00;;;8.30;100.00
22743;BME280;11538;48.884;8.696;2023-03-26T00:53:56;98227.94;;;8.36;100.00
22743;BME280;11538;48.884;8.696;2023-03-26T00:56:24;98230.63;;;8.36;100.00
22743;BME280;11538;48.884;8.696;2023-03-26T00:58:51;98222.94;;;8.43;100.00
22743;BME280;11538;48.884;8.696;2023-03-26T01:01:23;98233.16;;;8.46;100.00
22743;BME280;11538;48.884;8.696;2023-03-26T01:04:24;98225.50;;;8.34;100.00
22743;BME280;11538;48.884;8.696;2023-03-26T01:06:54;98219.81;;;8.36;100.00
22743;BME280;11538;48.884;8.696;2023-03-26T01:09:31;98216.31;;;8.35;100.00
22743;BME280;11538;48.884;8.696;2023-03-26T01:12:02;98205.31;;;8.31;100.00
22743;BME280;11538;48.884;8.696;2023-03-26T01:14:30;98209.09;;;8.30;100.00
22743;BME280;11538;48.884;8.696;2023-03-26T01:17:01;98201.97;;;8.20;100.00
22743;BME280;11538;48.884;8.696;2023-03-26T01:21:59;98199.06;;;8.03;100.00
22743;BME280;11538;48.884;8.696;2023-03-26T01:24:26;98192.56;;;8.04;100.00
22743;BME280;11538;48.884;8.696;2023-03-26T01:29:37;98190.25;;;8.11;100.00
22743;BME280;11538;48.884;8.696;2023-03-26T01:33:07;98186.28;;;8.09;100.00
22743;BME280;11538;48.884;8.696;2023-03-26T01:35:20;98175.44;;;7.95;100.00
22743;BME280;11538;48.884;8.696;2023-03-26T01:41:17;98168.56;;;8.02;100.00
22743;BME280;11538;48.884;8.696;2023-03-26T01:46:41;98153.75;;;8.14;100.00
22743;BME280;11538;48.884;8.696;2023-03-26T01:49:09;98143.56;;;8.11;100.00
22743;BME280;11538;48.884;8.696;2023-03-26T01:51:40;98149.16;;;8.14;100.00
22743;BME280;11538;48.884;8.696;2023-03-26T01:54:19;98137.94;;;8.07;100.00
22743;BME280;11538;48.884;8.696;2023-03-26T01:57:18;98121.66;;;7.98;100.00
22743;BME280;11538;48.884;8.696;2023-03-26T02:03:00;98108.13;;;7.98;100.00
22743;BME280;11538;48.884;8.696;2023-03-26T02:05:38;98101.53;;;8.04;100.00
22743;BME280;11538;48.884;8.696;2023-03-26T02:10:51;98106.72;;;8.01;100.00
22743;BME280;11538;48.884;8.696;2023-03-26T02:13:21;98104.53;;;8.03;100.00
22743;BME280;11538;48.884;8.696;2023-03-26T02:16:15;98092.72;;;7.99;100.00
22743;BME280;11538;48.884;8.696;2023-03-26T02:18:44;98088.63;;;8.01;100.00
22743;BME280;11538;48.884;8.696;2023-03-26T02:21:19;98083.41;;;8.05;100.00
22743;BME280;11538;48.884;8.696;2023-03-26T02:23:54;98077.94;;;7.96;100.00
22743;BME280;11538;48.884;8.696;2023-03-26T02:26:31;98086.09;;;7.91;100.00
22743;BME280;11538;48.884;8.696;2023-03-26T02:29:00;98083.00;;;7.84;100.00
22743;BME280;11538;48.884;8.696;2023-03-26T02:31:27;98077.69;;;7.79;100.00
22743;BME280;11538;48.884;8.696;2023-03-26T02:33:55;98071.69;;;7.82;100.00
22743;BME280;11538;48.884;8.696;2023-03-26T02:36:23;98065.69;;;7.85;100.00
22743;BME280;11538;48.884;8.696;2023-03-26T02:38:55;98070.00;;;7.86;100.00
22743;BME280;11538;48.884;8.696;2023-03-26T02:41:23;98065.78;;;7.80;100.00
22743;BME280;11538;48.884;8.696;2023-03-26T02:43:50;98072.19;;;7.70;100.00
22743;BME280;11538;48.884;8.696;2023-03-26T02:46:17;98058.28;;;7.76;100.00
22743;BME280;11538;48.884;8.696;2023-03-26T02:48:44;98060.81;;;7.87;100.00
22743;BME280;11538;48.884;8.696;2023-03-26T02:51:10;98057.31;;;7.86;100.00
22743;BME280;11538;48.884;8.696;2023-03-26T02:53:38;98051.59;;;7.88;100.00
22743;BME280;11538;48.884;8.696;2023-03-26T02:56:09;98048.78;;;7.93;100.00
22743;BME280;11538;48.884;8.696;2023-03-26T02:58:36;98049.50;;;7.99;100.00
22743;BME280;11538;48.884;8.696;2023-03-26T03:01:03;98040.31;;;8.00;100.00
22743;BME280;11538;48.884;8.696;2023-03-26T03:03:30;98033.31;;;7.99;100.00
22743;BME280;11538;48.884;8.696;2023-03-26T03:05:58;98035.72;;;8.00;100.00
22743;BME280;11538;48.884;8.696;2023-03-26T03:08:26;98029.81;;;7.98;100.00
22743;BME280;11538;48.884;8.696;2023-03-26T03:11:10;98023.09;;;7.96;100.00
22743;BME280;11538;48.884;8.696;2023-03-26T03:13:37;98015.50;;;7.98;100.00
22743;BME280;11538;48.884;8.696;2023-03-26T03:16:04;98007.31;;;8.03;100.00
22743;BME280;11538;48.884;8.696;2023-03-26T03:18:31;98005.91;;;8.05;100.00
22743;BME280;11538;48.884;8.696;2023-03-26T03:20:58;97996.59;;;7.98;100.00
22743;BME280;11538;48.884;8.696;2023-03-26T03:23:24;98003.72;;;7.94;100.00
22743;BME280;11538;48.884;8.696;2023-03-26T03:25:51;98002.09;;;7.93;100.00
22743;BME280;11538;48.884;8.696;2023-03-26T03:28:19;97998.09;;;7.90;100.00
22743;BME280;11538;48.884;8.696;2023-03-26T03:30:46;97990.81;;;7.90;100.00
22743;BME280;11538;48.884;8.696;2023-03-26T03:33:13;97987.28;;;7.90;100.00
22743;BME280;11538;48.884;8.696;2023-03-26T03:35:39;97982.72;;;7.90;100.00
22743;BME280;11538;48.884;8.696;2023-03-26T03:38:07;97986.81;;;7.88;100.00
22743;BME280;11538;48.884;8.696;2023-03-26T03:40:34;97982.72;;;7.90;100.00
22743;BME280;11538;48.884;8.696;2023-03-26T03:43:01;97978.91;;;7.92;100.00
22743;BME280;11538;48.884;8.696;2023-03-26T03:45:28;97983.00;;;7.89;100.00
22743;BME280;11538;48.884;8.696;2023-03-26T03:47:55;97974.91;;;7.89;100.00
22743;BME280;11538;48.884;8.696;2023-03-26T03:50:22;97973.91;;;7.85;100.00
22743;BME280;11538;48.884;8.696;2023-03-26T03:52:48;97961.94;;;7.77;100.00
22743;BME280;11538;48.884;8.696;2023-03-26T03:55:16;97967.22;;;7.68;100.00
22743;BME280;11538;48.884;8.696;2023-03-26T03:57:43;97955.31;;;7.69;100.00
22743;BME280;11538;48.884;8.696;2023-03-26T04:00:12;97949.22;;;7.78;100.00
22743;BME280;11538;48.884;8.696;2023-03-26T04:02:40;97942.59;;;7.84;100.00
22743;BME280;11538;48.884;8.696;2023-03-26T04:05:08;97941.50;;;7.85;100.00
22743;BME280;11538;48.884;8.696;2023-03-26T04:07:38;97932.00;;;7.87;100.00
22743;BME280;11538;48.884;8.696;2023-03-26T04:10:07;97924.41;;;7.89;100.00
22743;BME280;11538;48.884;8.696;2023-03-26T04:12:34;97927.28;;;7.93;100.00
22743;BME280;11538;48.884;8.696;2023-03-26T04:15:02;97922.69;;;7.94;100.00
22743;BME280;11538;48.884;8.696;2023-03-26T04:17:29;97925.59;;;7.97;100.00
22743;BME280;11538;48.884;8.696;2023-03-26T04:19:58;97921.00;;;7.98;100.00
22743;BME280;11538;48.884;8.696;2023-03-26T04:22:36;97903.88;;;8.02;100.00
22743;BME280;11538;48.884;8.696;2023-03-26T04:25:03;97897.00;;;7.96;100.00
22743;BME280;11538;48.884;8.696;2023-03-26T04:27:33;97900.72;;;7.86;100.00
22743;BME280;11538;48.884;8.696;2023-03-26T04:30:04;97898.13;;;7.81;100.00
22743;BME280;11538;48.884;8.696;2023-03-26T04:32:32;97881.50;;;7.88;100.00
22743;BME280;11538;48.884;8.696;2023-03-26T04:35:01;97876.69;;;7.99;100.00
22743;BME280;11538;48.884;8.696;2023-03-26T04:37:38;97892.09;;;7.98;100.00
22743;BME280;11538;48.884;8.696;2023-03-26T04:40:26;97883.38;;;8.01;100.00
22743;BME280;11538;48.884;8.696;2023-03-26T04:42:56;97878.97;;;8.05;100.00
22743;BME280;11538;48.884;8.696;2023-03-26T04:45:25;97871.66;;;8.06;100.00
22743;BME280;11538;48.884;8.696;2023-03-26T04:47:52;97874.31;;;7.97;100.00
22743;BME280;11538;48.884;8.696;2023-03-26T04:50:19;97867.09;;;7.93;100.00
22743;BME280;11538;48.884;8.696;2023-03-26T04:52:46;97859.91;;;7.88;100.00
22743;BME280;11538;48.884;8.696;2023-03-26T04:55:31;97869.31;;;7.90;100.00
22743;BME280;11538;48.884;8.696;2023-03-26T04:58:00;97867.31;;;7.96;100.00
22743;BME280;11538;48.884;8.696;2023-03-26T05:00:31;97871.03;;;8.09;100.00
22743;BME280;11538;48.884;8.696;2023-03-26T05:02:58;97864.66;;;8.05;100.00
22743;BME280;11538;48.884;8.696;2023-03-26T05:05:26;97853.25;;;8.08;100.00
22743;BME280;11538;48.884;8.696;2023-03-26T05:07:54;97851.03;;;8.10;100.00
22743;BME280;11538;48.884;8.696;2023-03-26T05:10:22;97846.75;;;8.09;100.00
22743;BME280;11538;48.884;8.696;2023-03-26T05:12:49;97838.16;;;8.07;100.00
22743;BME280;11538;48.884;8.696;2023-03-26T05:15:16;97822.44;;;8.09;100.00
22743;BME280;11538;48.884;8.696;2023-03-26T05:17:42;97817.03;;;8.09;100.00
22743;BME280;11538;48.884;8.696;2023-03-26T05:20:21;97803.09;;;8.16;100.00
22743;BME280;11538;48.884;8.696;2023-03-26T05:22:49;97796.28;;;8.18;100.00
22743;BME280;11538;48.884;8.696;2023-03-26T05:25:18;97787.88;;;8.20;100.00
22743;BME280;11538;48.884;8.696;2023-03-26T05:27:47;97788.84;;;8.24;100.00
22743;BME280;11538;48.884;8.696;2023-03-26T05:30:18;97793.78;;;8.22;100.00
22743;BME280;11538;48.884;8.696;2023-03-26T05:32:47;97785.47;;;8.18;100.00
22743;BME280;11538;48.884;8.696;2023-03-26T05:35:16;97785.09;;;8.11;100.00
22743;BME280;11538;48.884;8.696;2023-03-26T05:37:47;97778.00;;;8.15;100.00
22743;BME280;11538;48.884;8.696;2023-03-26T05:40:17;97763.38;;;8.16;100.00
22743;BME280;11538;48.884;8.696;2023-03-26T05:42:44;97758.16;;;8.20;100.00
22743;BME280;11538;48.884;8.696;2023-03-26T05:45:13;97747.72;;;8.27;100.00
22743;BME280;11538;48.884;8.696;2023-03-26T05:47:41;97748.22;;;8.29;100.00
22743;BME280;11538;48.884;8.696;2023-03-26T05:50:09;97740.88;;;8.30;100.00
22743;BME280;11538;48.884;8.696;2023-03-26T05:52:36;97734.06;;;8.32;100.00
22743;BME280;11538;48.884;8.696;2023-03-26T05:55:04;97732.97;;;8.33;100.00
22743;BME280;11538;48.884;8.696;2023-03-26T05:57:31;97730.75;;;8.36;100.00
22743;BME280;11538;48.884;8.696;2023-03-26T05:59:58;97733.47;;;8.36;100.00
22743;BME280;11538;48.884;8.696;2023-03-26T06:02:25;97726.47;;;8.34;100.00
22743;BME280;11538;48.884;8.696;2023-03-26T06:04:52;97708.03;;;8.37;100.00
22743;BME280;11538;48.884;8.696;2023-03-26T06:07:19;97706.91;;;8.38;100.00
22743;BME280;11538;48.884;8.696;2023-03-26T06:09:46;97707.09;;;8.41;100.00
22743;BME280;11538;48.884;8.696;2023-03-26T06:12:13;97704.56;;;8.45;100.00
22743;BME280;11538;48.884;8.696;2023-03-26T06:14:40;97708.03;;;8.45;100.00
22743;BME280;11538;48.884;8.696;2023-03-26T06:17:09;97701.88;;;8.45;100.00
22743;BME280;11538;48.884;8.696;2023-03-26T06:19:36;97697.72;;;8.47;100.00
22743;BME280;11538;48.884;8.696;2023-03-26T06:22:04;97695.03;;;8.47;100.00
22743;BME280;11538;48.884;8.696;2023-03-26T06:24:32;97704.44;;;8.50;100.00
22743;BME280;11538;48.884;8.696;2023-03-26T06:26:59;97702.34;;;8.47;100.00
22743;BME280;11538;48.884;8.696;2023-03-26T06:29:26;97694.75;;;8.49;100.00
22743;BME280;11538;48.884;8.696;2023-03-26T06:31:53;97685.69;;;8.54;100.00
22743;BME280;11538;48.884;8.696;2023-03-26T06:34:20;97692.06;;;8.58;100.00
22743;BME280;11538;48.884;8.696;2023-03-26T06:36:47;97685.41;;;8.55;100.00
22743;BME280;11538;48.884;8.696;2023-03-26T06:39:14;97680.63;;;8.52;100.00
22743;BME280;11538;48.884;8.696;2023-03-26T06:41:41;97697.56;;;8.44;100.00
22743;BME280;11538;48.884;8.696;2023-03-26T06:44:09;97686.75;;;8.44;100.00
22743;BME280;11538;48.884;8.696;2023-03-26T06:46:37;97686.28;;;8.42;100.00
22743;BME280;11538;48.884;8.696;2023-03-26T06:49:04;97675.41;;;8.33;100.00
22743;BME280;11538;48.884;8.696;2023-03-26T06:51:31;97668.41;;;8.23;100.00
22743;BME280;11538;48.884;8.696;2023-03-26T06:53:57;97670.91;;;8.19;100.00
22743;BME280;11538;48.884;8.696;2023-03-26T06:56:24;97660.94;;;8.20;100.00
22743;BME280;11538;48.884;8.696;2023-03-26T06:58:51;97657.25;;;8.16;100.00
22743;BME280;11538;48.884;8.696;2023-03-26T07:01:18;97657.75;;;8.18;100.00
22743;BME280;11538;48.884;8.696;2023-03-26T07:03:45;97651.38;;;8.14;100.00
22743;BME280;11538;48.884;8.696;2023-03-26T07:06:12;97643.06;;;8.10;100.00
22743;BME280;11538;48.884;8.696;2023-03-26T07:08:39;97642.63;;;8.17;100.00
22743;BME280;11538;48.884;8.696;2023-03-26T07:11:06;97637.25;;;8.17;100.00
22743;BME280;11538;48.884;8.696;2023-03-26T07:13:33;97638.34;;;8.16;100.00
22743;BME280;11538;48.884;8.696;2023-03-26T07:16:00;97637.88;;;8.14;100.00
22743;BME280;11538;48.884;8.696;2023-03-26T07:18:27;97640.41;;;8.19;100.00
22743;BME280;11538;48.884;8.696;2023-03-26T07:20:54;97637.72;;;8.19;100.00
22743;BME280;11538;48.884;8.696;2023-03-26T07:23:21;97628.81;;;8.18;100.00
22743;BME280;11538;48.884;8.696;2023-03-26T07:25:49;97619.13;;;8.17;100.00
22743;BME280;11538;48.884;8.696;2023-03-26T07:28:41;97625.94;;;8.15;100.00
22743;BME280;11538;48.884;8.696;2023-03-26T07:37:31;97605.59;;;8.17;100.00
22743;BME280;11538;48.884;8.696;2023-03-26T07:40:52;97589.09;;;8.19;100.00
22743;BME280;11538;48.884;8.696;2023-03-26T07:44:01;97587.66;;;8.13;100.00
22743;BME280;11538;48.884;8.696;2023-03-26T07:46:33;97582.56;;;8.11;100.00
22743;BME280;11538;48.884;8.696;2023-03-26T07:49:03;97583.50;;;8.07;100.00
22743;BME280;11538;48.884;8.696;2023-03-26T07:51:31;97568.91;;;8.08;100.00
22743;BME280;11538;48.884;8.696;2023-03-26T07:53:59;97563.16;;;8.09;100.00
22743;BME280;11538;48.884;8.696;2023-03-26T07:56:54;97561.28;;;8.10;100.00
22743;BME280;11538;48.884;8.696;2023-03-26T08:00:02;97563.00;;;8.05;100.00
22743;BME280;11538;48.884;8.696;2023-03-26T08:06:29;97541.88;;;8.08;100.00
22743;BME280;11538;48.884;8.696;2023-03-26T08:09:26;97540.94;;;8.12;100.00
22743;BME280;11538;48.884;8.696;2023-03-26T08:14:51;97538.41;;;8.16;100.00
22743;BME280;11538;48.884;8.696;2023-03-26T08:22:50;97537.28;;;8.08;100.00
22743;BME280;11538;48.884;8.696;2023-03-26T08:25:28;97539.19;;;8.08;100.00
22743;BME280;11538;48.884;8.696;2023-03-26T08:30:47;97526.31;;;8.13;100.00
22743;BME280;11538;48.884;8.696;2023-03-26T08:33:19;97540.31;;;8.15;100.00
22743;BME280;11538;48.884;8.696;2023-03-26T08:35:47;97538.41;;;8.25;100.00
22743;BME280;11538;48.884;8.696;2023-03-26T08:38:17;97541.78;;;8.30;100.00
22743;BME280;11538;48.884;8.696;2023-03-26T09:00:01;97528.50;;;9.52;100.00
22743;BME280;11538;48.884;8.696;2023-03-26T09:02:52;97521.91;;;9.79;100.00
22743;BME280;11538;48.884;8.696;2023-03-26T09:06:12;97514.97;;;10.21;100.00
22743;BME280;11538;48.884;8.696;2023-03-26T09:15:37;97507.50;;;10.48;100.00
22743;BME280;11538;48.884;8.696;2023-03-26T09:18:49;97502.25;;;10.43;100.00
22743;BME280;11538;48.884;8.696;2023-03-26T09:21:43;97508.03;;;10.41;100.00
22743;BME280;11538;48.884;8.696;2023-03-26T09:36:52;97527.38;;;10.52;100.00
22743;BME280;11538;48.884;8.696;2023-03-26T09:42:48;97521.91;;;10.61;100.00
22743;BME280;11538;48.884;8.696;2023-03-26T09:58:02;97515.69;;;11.49;97.19
22743;BME280;11538;48.884;8.696;2023-03-26T10:07:50;97512.47;;;12.71;79.25
22743;BME280;11538;48.884;8.696;2023-03-26T10:13:41;97505.00;;;12.68;83.80
22743;BME280;11538;48.884;8.696;2023-03-26T10:16:30;97506.56;;;12.69;80.16
22743;BME280;11538;48.884;8.696;2023-03-26T10:31:22;97505.28;;;13.52;74.50
22743;BME280;11538;48.884;8.696;2023-03-26T10:37:09;97505.47;;;14.43;67.58
22743;BME280;11538;48.884;8.696;2023-03-26T10:39:46;97497.81;;;14.68;69.46
22743;BME280;11538;48.884;8.696;2023-03-26T10:42:49;97500.00;;;15.41;66.33
22743;BME280;11538;48.884;8.696;2023-03-26T10:51:40;97492.81;;;15.79;63.58
22743;BME280;11538;48.884;8.696;2023-03-26T10:54:32;97478.53;;;15.67;58.88
22743;BME280;11538;48.884;8.696;2023-03-26T11:00:24;97489.19;;;15.48;58.64
22743;BME280;11538;48.884;8.696;2023-03-26T11:03:34;97481.31;;;14.81;60.05
22743;BME280;11538;48.884;8.696;2023-03-26T11:09:48;97508.00;;;13.84;68.38
22743;BME280;11538;48.884;8.696;2023-03-26T11:12:44;97524.19;;;13.60;73.50
22743;BME280;11538;48.884;8.696;2023-03-26T11:15:35;97528.66;;;13.08;76.66
22743;BME280;11538;48.884;8.696;2023-03-26T11:18:21;97522.63;;;13.31;78.08
22743;BME280;11538;48.884;8.696;2023-03-26T11:21:10;97533.59;;;13.19;75.12
22743;BME280;11538;48.884;8.696;2023-03-26T11:29:19;97534.59;;;13.26;74.56
22743;BME280;11538;48.884;8.696;2023-03-26T11:32:26;97538.16;;;13.14;74.21
22743;BME280;11538;48.884;8.696;2023-03-26T11:35:17;97524.53;;;13.14;74.45
22743;BME280;11538;48.884;8.696;2023-03-26T11:38:36;97544.81;;;12.89;75.41
22743;BME280;11538;48.884;8.696;2023-03-26T11:41:22;97528.59;;;12.64;77.24
22743;BME280;11538;48.884;8.696;2023-03-26T11:44:29;97527.44;;;12.52;81.92
22743;BME280;11538;48.884;8.696;2023-03-26T11:47:00;97525.63;;;12.69;80.73
22743;BME280;11538;48.884;8.696;2023-03-26T11:49:31;97532.56;;;14.36;75.47
22743;BME280;11538;48.884;8.696;2023-03-26T11:51:58;97522.47;;;16.01;68.80
22743;BME280;11538;48.884;8.696;2023-03-26T11:54:27;97521.50;;;17.04;63.21
22743;BME280;11538;48.884;8.696;2023-03-26T11:57:00;97523.19;;;17.95;61.04
22743;BME280;11538;48.884;8.696;2023-03-26T12:00:09;97527.72;;;18.22;56.90
22743;BME280;11538;48.884;8.696;2023-03-26T12:02:47;97520.56;;;18.77;52.95
22743;BME280;11538;48.884;8.696;2023-03-26T12:05:21;97523.34;;;18.80;51.40
22743;BME280;11538;48.884;8.696;2023-03-26T12:07:58;97519.63;;;19.39;50.03
22743;BME280;11538;48.884;8.696;2023-03-26T12:10:32;97514.16;;;19.76;46.24
22743;BME280;11538;48.884;8.696;2023-03-26T12:13:50;97510.25;;;20.06;44.93
22743;BME280;11538;48.884;8.696;2023-03-26T12:16:19;97500.31;;;20.59;43.43
22743;BME280;11538;48.884;8.696;2023-03-26T12:19:03;97495.31;;;20.07;42.60
22743;BME280;11538;48.884;8.696;2023-03-26T12:21:51;97488.41;;;20.91;41.74
22743;BME280;11538;48.884;8.696;2023-03-26T12:24:33;97494.44;;;20.50;38.70
22743;BME280;11538;48.884;8.696;2023-03-26T12:29:51;97464.88;;;21.43;35.85
22743;BME280;11538;48.884;8.696;2023-03-26T12:32:18;97464.81;;;21.54;37.42
22743;BME280;11538;48.884;8.696;2023-03-26T12:34:45;97468.03;;;21.94;35.50
22743;BME280;11538;48.884;8.696;2023-03-26T12:37:37;97455.91;;;20.42;35.95
22743;BME280;11538;48.884;8.696;2023-03-26T12:40:31;97446.53;;;18.14;40.52
22743;BME280;11538;48.884;8.696;2023-03-26T12:43:03;97459.47;;;17.19;43.69
22743;BME280;11538;48.884;8.696;2023-03-26T12:45:55;97461.38;;;16.20;46.17
22743;BME280;11538;48.884;8.696;2023-03-26T12:48:44;97473.81;;;15.63;47.68
22743;BME280;11538;48.884;8.696;2023-03-26T12:51:35;97522.31;;;14.84;54.54
22743;BME280;11538;48.884;8.696;2023-03-26T12:57:31;97502.56;;;14.71;68.68
22743;BME280;11538;48.884;8.696;2023-03-26T13:00:54;97484.19;;;16.01;61.24
22743;BME280;11538;48.884;8.696;2023-03-26T13:03:37;97481.59;;;17.03;57.55
22743;BME280;11538;48.884;8.696;2023-03-26T13:06:33;97468.16;;;18.26;55.78
22743;BME280;11538;48.884;8.696;2023-03-26T13:12:39;97450.91;;;19.72;47.04
22743;BME280;11538;48.884;8.696;2023-03-26T13:15:24;97449.31;;;19.89;44.77
22743;BME280;11538;48.884;8.696;2023-03-26T13:21:00;97430.75;;;20.33;44.98
22743;BME280;11538;48.884;8.696;2023-03-26T13:27:04;97438.97;;;20.48;44.04
22743;BME280;11538;48.884;8.696;2023-03-26T13:30:12;97431.47;;;20.59;42.60
22743;BME280;11538;48.884;8.696;2023-03-26T13:36:27;97437.25;;;17.77;51.39
22743;BME280;11538;48.884;8.696;2023-03-26T13:42:05;97435.66;;;16.25;52.90
22743;BME280;11538;48.884;8.696;2023-03-26T13:44:57;97434.19;;;15.77;54.39
22743;BME280;11538;48.884;8.696;2023-03-26T13:47:41;97430.69;;;15.53;56.16
22743;BME280;11538;48.884;8.696;2023-03-26T13:50:26;97425.59;;;15.28;53.88
22743;BME280;11538;48.884;8.696;2023-03-26T13:55:44;97425.28;;;15.10;57.96
22743;BME280;11538;48.884;8.696;2023-03-26T14:01:04;97422.41;;;14.80;55.06
22743;BME280;11538;48.884;8.696;2023-03-26T14:04:01;97434.06;;;14.76;55.32
22743;BME280;11538;48.884;8.696;2023-03-26T14:06:41;97433.47;;;14.67;55.87
22743;BME280;11538;48.884;8.696;2023-03-26T14:09:19;97433.44;;;14.47;55.40
22743;BME280;11538;48.884;8.696;2023-03-26T14:17:09;97430.50;;;14.17;55.91
22743;BME280;11538;48.884;8.696;2023-03-26T14:22:53;97484.00;;;13.73;55.00
22743;BME280;11538;48.884;8.696;2023-03-26T14:32:12;97568.81;;;11.04;85.43
22743;BME280;11538;48.884;8.696;2023-03-26T14:41:20;97564.38;;;9.88;100.00
22743;BME280;11538;48.884;8.696;2023-03-26T14:47:23;97558.25;;;9.70;100.00
22743;BME280;11538;48.884;8.696;2023-03-26T14:52:54;97551.06;;;9.74;100.00
22743;BME280;11538;48.884;8.696;2023-03-26T15:01:24;97547.09;;;9.71;100.00
22743;BME280;11538;48.884;8.696;2023-03-26T15:04:27;97547.22;;;9.75;100.00
22743;BME280;11538;48.884;8.696;2023-03-26T15:07:44;97537.28;;;9.49;100.00
22743;BME280;11538;48.884;8.696;2023-03-26T15:10:48;97526.94;;;9.51;100.00
22743;BME280;11538;48.884;8.696;2023-03-26T15:13:48;97537.09;;;9.63;100.00
22743;BME280;11538;48.884;8.696;2023-03-26T15:17:09;97529.03;;;9.45;100.00
22743;BME280;11538;48.884;8.696;2023-03-26T15:20:26;97518.69;;;9.47;100.00
22743;BME280;11538;48.884;8.696;2023-03-26T15:32:54;97497.81;;;9.48;99.93
22743;BME280;11538;48.884;8.696;2023-03-26T15:35:55;97484.13;;;9.44;100.00
22743;BME280;11538;48.884;8.696;2023-03-26T15:45:34;97466.38;;;9.64;97.17
22743;BME280;11538;48.884;8.696;2023-03-26T15:48:34;97461.09;;;9.68;95.42
22743;BME280;11538;48.884;8.696;2023-03-26T15:51:50;97466.94;;;9.79;97.36
22743;BME280;11538;48.884;8.696;2023-03-26T15:54:47;97476.69;;;9.71;94.34
22743;BME280;11538;48.884;8.696;2023-03-26T15:57:33;97484.53;;;9.64;95.90
22743;BME280;11538;48.884;8.696;2023-03-26T16:00:25;97487.34;;;9.76;97.79
22743;BME280;11538;48.884;8.696;2023-03-26T16:14:44;97505.50;;;9.76;98.43
22743;BME280;11538;48.884;8.696;2023-03-26T16:17:22;97511.19;;;9.83;98.85
22743;BME280;11538;48.884;8.696;2023-03-26T16:23:02;97505.00;;;9.83;99.88
22743;BME280;11538;48.884;8.696;2023-03-26T16:28:59;97513.78;;;9.71;96.32
22743;BME280;11538;48.884;8.696;2023-03-26T16:31:31;97510.81;;;9.63;94.90
22743;BME280;11538;48.884;8.696;2023-03-26T16:36:44;97525.22;;;9.46;94.28
22743;BME280;11538;48.884;8.696;2023-03-26T16:39:23;97513.72;;;9.49;93.51
22743;BME280;11538;48.884;8.696;2023-03-26T16:41:59;97523.03;;;9.70;91.60
22743;BME280;11538;48.884;8.696;2023-03-26T16:47:44;97517.84;;;9.56;88.51
22743;BME280;11538;48.884;8.696;2023-03-26T16:50:45;97525.63;;;9.57;90.37
22743;BME280;11538;48.884;8.696;2023-03-26T16:56:32;97540.88;;;9.71;88.82
22743;BME280;11538;48.884;8.696;2023-03-26T17:02:51;97525.31;;;9.59;89.99
22743;BME280;11538;48.884;8.696;2023-03-26T17:05:57;97536.00;;;9.55;91.24
22743;BME280;11538;48.884;8.696;2023-03-26T17:11:58;97544.44;;;9.54;89.87
22743;BME280;11538;48.884;8.696;2023-03-26T17:17:38;97546.22;;;9.49;93.33
22743;BME280;11538;48.884;8.696;2023-03-26T17:20:29;97547.63;;;9.47;91.25
22743;BME280;11538;48.884;8.696;2023-03-26T17:26:21;97542.25;;;9.38;91.96
22743;BME280;11538;48.884;8.696;2023-03-26T17:32:17;97552.47;;;9.24;91.83
22743;BME280;11538;48.884;8.696;2023-03-26T17:42:26;97537.50;;;9.26;93.24
22743;BME280;11538;48.884;8.696;2023-03-26T17:44:57;97540.38;;;9.30;91.05
22743;BME280;11538;48.884;8.696;2023-03-26T17:47:38;97537.66;;;9.21;89.76
22743;BME280;11538;48.884;8.696;2023-03-26T17:52:48;97537.69;;;9.12;90.76
22743;BME280;11538;48.884;8.696;2023-03-26T17:55:34;97542.28;;;9.20;91.39
22743;BME280;11538;48.884;8.696;2023-03-26T17:58:05;97543.38;;;9.19;92.12
22743;BME280;11538;48.884;8.696;2023-03-26T18:00:40;97545.31;;;9.10;92.59
22743;BME280;11538;48.884;8.696;2023-03-26T18:03:28;97542.31;;;9.12;94.22
22743;BME280;11538;48.884;8.696;2023-03-26T18:06:07;97542.13;;;9.08;96.09
22743;BME280;11538;48.884;8.696;2023-03-26T18:09:04;97548.03;;;9.01;97.78
22743;BME280;11538;48.884;8.696;2023-03-26T18:15:29;97555.69;;;8.73;100.00
22743;BME280;11538;48.884;8.696;2023-03-26T18:18:31;97552.66;;;8.74;100.00
22743;BME280;11538;48.884;8.696;2023-03-26T18:21:03;97565.22;;;8.61;100.00
22743;BME280;11538;48.884;8.696;2023-03-26T18:23:40;97562.97;;;8.55;100.00